sensor_id;sensor_type;location;lat;lon;timestamp;pressure;altitude;pressure_sealevel;temperature;humidity
12763;BME280;6445;52.490;13.378;2022-11-25T00:00:21;118416.44;;;-146.10;100.00
12763;BME280;6445;52.490;13.378;2022-11-25T00:02:46;118416.44;;;-146.10;100.00
12763;BME280;6445;52.490;13.378;2022-11-25T00:05:12;118416.44;;;-146.10;100.00
12763;BME280;6445;52.490;13.378;2022-11-25T00:07:37;118416.44;;;-146.10;100.00
12763;BME280;6445;52.490;13.378;2022-11-25T00:10:04;118416.44;;;-146.10;100.00
12763;BME280;6445;52.490;13.378;2022-11-25T00:12:30;118416.44;;;-146.10;100.00
12763;BME280;6445;52.490;13.378;2022-11-25T00:14:55;118416.44;;;-146.10;100.00
12763;BME280;6445;52.490;13.378;2022-11-25T00:17:20;118156.13;;;-146.10;100.00
12763;BME280;6445;52.490;13.378;2022-11-25T00:19:45;118156.13;;;-146.10;100.00
12763;BME280;6445;52.490;13.378;2022-11-25T00:22:13;118156.13;;;-146.10;100.00
12763;BME280;6445;52.490;13.378;2022-11-25T00:24:38;117895.81;;;-146.10;100.00
12763;BME280;6445;52.490;13.378;2022-11-25T00:27:03;118156.13;;;-146.10;100.00
12763;BME280;6445;52.490;13.378;2022-11-25T00:29:29;118156.13;;;-146.10;100.00
12763;BME280;6445;52.490;13.378;2022-11-25T00:31:54;117895.81;;;-146.10;100.00
12763;BME280;6445;52.490;13.378;2022-11-25T00:34:19;117895.81;;;-146.10;100.00
12763;BME280;6445;52.490;13.378;2022-11-25T00:36:44;117635.53;;;-146.10;100.00
12763;BME280;6445;52.490;13.378;2022-11-25T00:39:12;117635.53;;;-146.10;100.00
12763;BME280;6445;52.490;13.378;2022-11-25T00:41:38;117635.53;;;-146.10;100.00
12763;BME280;6445;52.490;13.378;2022-11-25T00:44:22;117895.81;;;-146.10;100.00
12763;BME280;6445;52.490;13.378;2022-11-25T00:47:32;117895.81;;;-146.10;100.00
12763;BME280;6445;52.490;13.378;2022-11-25T00:49:58;117895.81;;;-146.10;100.00
12763;BME280;6445;52.490;13.378;2022-11-25T00:52:25;117635.53;;;-146.10;100.00
12763;BME280;6445;52.490;13.378;2022-11-25T00:54:51;117375.28;;;-146.10;100.00
12763;BME280;6445;52.490;13.378;2022-11-25T00:57:19;117635.53;;;-146.10;100.00
12763;BME280;6445;52.490;13.378;2022-11-25T00:59:44;117635.53;;;-146.10;100.00
12763;BME280;6445;52.490;13.378;2022-11-25T01:02:11;117635.53;;;-146.10;100.00
12763;BME280;6445;52.490;13.378;2022-11-25T01:04:36;117375.28;;;-146.10;100.00
12763;BME280;6445;52.490;13.378;2022-11-25T01:07:02;117375.28;;;-146.10;100.00
12763;BME280;6445;52.490;13.378;2022-11-25T01:09:28;117375.28;;;-146.10;100.00
12763;BME280;6445;52.490;13.378;2022-11-25T01:11:53;117375.28;;;-146.10;100.00
12763;BME280;6445;52.490;13.378;2022-11-25T01:14:20;117375.28;;;-146.10;100.00
12763;BME280;6445;52.490;13.378;2022-11-25T01:16:46;117375.28;;;-146.10;100.00
12763;BME280;6445;52.490;13.378;2022-11-25T01:19:12;117375.28;;;-146.10;100.00
12763;BME280;6445;52.490;13.378;2022-11-25T01:21:37;117375.28;;;-146.10;100.00
12763;BME280;6445;52.490;13.378;2022-11-25T01:24:04;117375.28;;;-146.10;100.00
12763;BME280;6445;52.490;13.378;2022-11-25T01:26:31;117635.53;;;-146.10;100.00
12763;BME280;6445;52.490;13.378;2022-11-25T01:29:02;117635.53;;;-146.10;100.00
12763;BME280;6445;52.490;13.378;2022-11-25T01:31:30;117635.53;;;-146.10;100.00
12763;BME280;6445;52.490;13.378;2022-11-25T01:34:02;117115.03;;;-146.10;100.00
12763;BME280;6445;52.490;13.378;2022-11-25T01:36:28;116854.78;;;-146.10;100.00
12763;BME280;6445;52.490;13.378;2022-11-25T01:38:56;116854.78;;;-146.10;100.00
12763;BME280;6445;52.490;13.378;2022-11-25T01:41:23;116854.78;;;-146.10;100.00
12763;BME280;6445;52.490;13.378;2022-11-25T01:47:00;117115.03;;;-146.10;100.00
12763;BME280;6445;52.490;13.378;2022-11-25T01:49:30;117375.28;;;-146.10;100.00
12763;BME280;6445;52.490;13.378;2022-11-25T01:55:07;117115.03;;;-146.10;100.00
12763;BME280;6445;52.490;13.378;2022-11-25T01:57:46;116854.78;;;-146.10;100.00
12763;BME280;6445;52.490;13.378;2022-11-25T02:00:12;117115.03;;;-146.10;100.00
12763;BME280;6445;52.490;13.378;2022-11-25T02:02:38;117375.28;;;-146.10;100.00
12763;BME280;6445;52.490;13.378;2022-11-25T02:05:07;117115.03;;;-146.10;100.00
12763;BME280;6445;52.490;13.378;2022-11-25T02:07:39;117115.03;;;-146.10;100.00
12763;BME280;6445;52.490;13.378;2022-11-25T02:10:09;117115.03;;;-146.10;100.00
12763;BME280;6445;52.490;13.378;2022-11-25T02:12:37;117375.28;;;-146.10;100.00
12763;BME280;6445;52.490;13.378;2022-11-25T02:15:05;117375.28;;;-146.10;100.00
12763;BME280;6445;52.490;13.378;2022-11-25T02:17:30;117635.53;;;-146.10;100.00
12763;BME280;6445;52.490;13.378;2022-11-25T02:20:03;117635.53;;;-146.10;100.00
12763;BME280;6445;52.490;13.378;2022-11-25T02:27:40;117895.81;;;-146.10;100.00
12763;BME280;6445;52.490;13.378;2022-11-25T02:30:07;117895.81;;;-146.10;100.00
12763;BME280;6445;52.490;13.378;2022-11-25T02:32:32;118156.13;;;-146.10;100.00
12763;BME280;6445;52.490;13.378;2022-11-25T02:34:58;118156.13;;;-146.10;100.00
12763;BME280;6445;52.490;13.378;2022-11-25T02:37:23;118156.13;;;-146.10;100.00
12763;BME280;6445;52.490;13.378;2022-11-25T02:39:48;118156.13;;;-146.10;100.00
12763;BME280;6445;52.490;13.378;2022-11-25T02:42:16;118156.13;;;-146.10;100.00
12763;BME280;6445;52.490;13.378;2022-11-25T02:44:43;118156.13;;;-146.10;100.00
12763;BME280;6445;52.490;13.378;2022-11-25T02:47:09;118156.13;;;-146.10;100.00
12763;BME280;6445;52.490;13.378;2022-11-25T02:49:34;118156.13;;;-146.10;100.00
12763;BME280;6445;52.490;13.378;2022-11-25T02:51:59;118416.44;;;-146.10;100.00
12763;BME280;6445;52.490;13.378;2022-11-25T02:54:24;118416.44;;;-146.10;100.00
12763;BME280;6445;52.490;13.378;2022-11-25T02:56:50;118416.44;;;-146.10;100.00
12763;BME280;6445;52.490;13.378;2022-11-25T02:59:15;118156.13;;;-146.10;100.00
12763;BME280;6445;52.490;13.378;2022-11-25T03:01:40;118156.13;;;-146.10;100.00
12763;BME280;6445;52.490;13.378;2022-11-25T03:04:05;118156.13;;;-146.10;100.00
12763;BME280;6445;52.490;13.378;2022-11-25T03:06:31;118156.13;;;-146.10;100.00
12763;BME280;6445;52.490;13.378;2022-11-25T03:08:57;118156.13;;;-146.10;100.00
12763;BME280;6445;52.490;13.378;2022-11-25T03:11:22;118416.44;;;-146.10;100.00
12763;BME280;6445;52.490;13.378;2022-11-25T03:14:10;118416.44;;;-146.10;100.00
12763;BME280;6445;52.490;13.378;2022-11-25T03:16:36;118416.44;;;-146.10;100.00
12763;BME280;6445;52.490;13.378;2022-11-25T03:19:01;118416.44;;;-146.10;100.00
12763;BME280;6445;52.490;13.378;2022-11-25T03:21:26;118416.44;;;-146.10;100.00
12763;BME280;6445;52.490;13.378;2022-11-25T03:23:52;118418.47;;;-146.10;100.00
12763;BME280;6445;52.490;13.378;2022-11-25T03:26:17;118418.47;;;-146.10;100.00
12763;BME280;6445;52.490;13.378;2022-11-25T03:28:42;118418.47;;;-146.10;100.00
12763;BME280;6445;52.490;13.378;2022-11-25T03:31:10;118418.47;;;-146.10;100.00
12763;BME280;6445;52.490;13.378;2022-11-25T03:33:36;118418.47;;;-146.10;100.00
12763;BME280;6445;52.490;13.378;2022-11-25T03:36:01;118416.44;;;-146.10;100.00
12763;BME280;6445;52.490;13.378;2022-11-25T03:38:26;118416.44;;;-146.10;100.00
12763;BME280;6445;52.490;13.378;2022-11-25T03:40:51;118416.44;;;-146.10;100.00
12763;BME280;6445;52.490;13.378;2022-11-25T03:43:17;118416.44;;;-146.10;100.00
12763;BME280;6445;52.490;13.378;2022-11-25T03:45:42;118416.44;;;-146.10;100.00
12763;BME280;6445;52.490;13.378;2022-11-25T03:48:07;118416.44;;;-146.10;100.00
12763;BME280;6445;52.490;13.378;2022-11-25T03:50:32;118416.44;;;-146.10;100.00
12763;BME280;6445;52.490;13.378;2022-11-25T03:52:58;118416.44;;;-146.10;100.00
12763;BME280;6445;52.490;13.378;2022-11-25T03:55:23;118416.44;;;-146.10;100.00
12763;BME280;6445;52.490;13.378;2022-11-25T03:57:48;118416.44;;;-146.10;100.00
12763;BME280;6445;52.490;13.378;2022-11-25T04:00:14;118416.44;;;-146.10;100.00
12763;BME280;6445;52.490;13.378;2022-11-25T04:02:39;118416.44;;;-146.10;100.00
12763;BME280;6445;52.490;13.378;2022-11-25T04:05:05;118416.44;;;-146.10;100.00
12763;BME280;6445;52.490;13.378;2022-11-25T04:07:30;118416.44;;;-146.10;100.00
12763;BME280;6445;52.490;13.378;2022-11-25T04:09:55;118416.44;;;-146.10;100.00
12763;BME280;6445;52.490;13.378;2022-11-25T04:12:20;118416.44;;;-146.10;100.00
12763;BME280;6445;52.490;13.378;2022-11-25T04:15:04;118416.44;;;-146.10;100.00
12763;BME280;6445;52.490;13.378;2022-11-25T04:17:30;118416.44;;;-146.10;100.00
12763;BME280;6445;52.490;13.378;2022-11-25T04:19:55;118416.44;;;-146.10;100.00
12763;BME280;6445;52.490;13.378;2022-11-25T04:22:20;118416.44;;;-146.10;100.00
12763;BME280;6445;52.490;13.378;2022-11-25T04:24:45;118416.44;;;-146.10;100.00
12763;BME280;6445;52.490;13.378;2022-11-25T04:27:11;118416.44;;;-146.10;100.00
12763;BME280;6445;52.490;13.378;2022-11-25T04:29:36;118416.44;;;-146.10;100.00
12763;BME280;6445;52.490;13.378;2022-11-25T04:32:01;118416.44;;;-146.10;100.00
12763;BME280;6445;52.490;13.378;2022-11-25T04:34:26;118416.44;;;-146.10;100.00
12763;BME280;6445;52.490;13.378;2022-11-25T04:36:52;118416.44;;;-146.10;100.00
12763;BME280;6445;52.490;13.378;2022-11-25T04:39:17;118416.44;;;-146.10;100.00
12763;BME280;6445;52.490;13.378;2022-11-25T04:41:42;118416.44;;;-146.10;100.00
12763;BME280;6445;52.490;13.378;2022-11-25T04:44:07;118416.44;;;-146.10;100.00
12763;BME280;6445;52.490;13.378;2022-11-25T04:46:37;118416.44;;;-146.10;100.00
12763;BME280;6445;52.490;13.378;2022-11-25T04:49:03;118416.44;;;-146.10;100.00
12763;BME280;6445;52.490;13.378;2022-11-25T04:51:29;118416.44;;;-146.10;100.00
12763;BME280;6445;52.490;13.378;2022-11-25T04:53:54;118416.44;;;-146.10;100.00
12763;BME280;6445;52.490;13.378;2022-11-25T04:56:20;118416.44;;;-146.10;100.00
12763;BME280;6445;52.490;13.378;2022-11-25T04:58:46;118416.44;;;-146.10;100.00
12763;BME280;6445;52.490;13.378;2022-11-25T05:01:30;118416.44;;;-146.10;100.00
12763;BME280;6445;52.490;13.378;2022-11-25T05:03:55;118416.44;;;-146.10;100.00
12763;BME280;6445;52.490;13.378;2022-11-25T05:06:20;118416.44;;;-146.10;100.00
12763;BME280;6445;52.490;13.378;2022-11-25T05:08:49;118416.44;;;-146.10;100.00
12763;BME280;6445;52.490;13.378;2022-11-25T05:11:15;118416.44;;;-146.10;100.00
12763;BME280;6445;52.490;13.378;2022-11-25T05:13:41;118416.44;;;-146.10;100.00
12763;BME280;6445;52.490;13.378;2022-11-25T05:16:06;118156.13;;;-146.10;100.00
12763;BME280;6445;52.490;13.378;2022-11-25T05:18:31;118156.13;;;-146.10;100.00
12763;BME280;6445;52.490;13.378;2022-11-25T05:21:03;118156.13;;;-146.10;100.00
12763;BME280;6445;52.490;13.378;2022-11-25T05:23:30;118156.13;;;-146.10;100.00
12763;BME280;6445;52.490;13.378;2022-11-25T05:26:00;118156.13;;;-146.10;100.00
12763;BME280;6445;52.490;13.378;2022-11-25T05:28:26;118156.13;;;-146.10;100.00
12763;BME280;6445;52.490;13.378;2022-11-25T05:30:51;117895.81;;;-146.10;100.00
12763;BME280;6445;52.490;13.378;2022-11-25T05:33:17;117895.81;;;-146.10;100.00
12763;BME280;6445;52.490;13.378;2022-11-25T05:35:42;117895.81;;;-146.10;100.00
12763;BME280;6445;52.490;13.378;2022-11-25T05:38:07;117895.81;;;-146.10;100.00
12763;BME280;6445;52.490;13.378;2022-11-25T05:40:32;117895.81;;;-146.10;100.00
12763;BME280;6445;52.490;13.378;2022-11-25T05:42:59;117895.81;;;-146.10;100.00
12763;BME280;6445;52.490;13.378;2022-11-25T05:45:25;117895.81;;;-146.10;100.00
12763;BME280;6445;52.490;13.378;2022-11-25T05:47:51;118156.13;;;-146.10;100.00
12763;BME280;6445;52.490;13.378;2022-11-25T05:50:16;118156.13;;;-146.10;100.00
12763;BME280;6445;52.490;13.378;2022-11-25T05:52:41;118156.13;;;-146.10;100.00
12763;BME280;6445;52.490;13.378;2022-11-25T05:55:07;118156.13;;;-146.10;100.00
12763;BME280;6445;52.490;13.378;2022-11-25T05:57:32;117895.81;;;-146.10;100.00
12763;BME280;6445;52.490;13.378;2022-11-25T05:59:57;117895.81;;;-146.10;100.00
12763;BME280;6445;52.490;13.378;2022-11-25T06:02:23;117895.81;;;-146.10;100.00
12763;BME280;6445;52.490;13.378;2022-11-25T06:04:48;118156.13;;;-146.10;100.00
12763;BME280;6445;52.490;13.378;2022-11-25T06:07:13;118156.13;;;-146.10;100.00
12763;BME280;6445;52.490;13.378;2022-11-25T06:09:38;118156.13;;;-146.10;100.00
12763;BME280;6445;52.490;13.378;2022-11-25T06:12:04;118156.13;;;-146.10;100.00
12763;BME280;6445;52.490;13.378;2022-11-25T06:14:29;118156.13;;;-146.10;100.00
12763;BME280;6445;52.490;13.378;2022-11-25T06:16:54;118156.13;;;-146.10;100.00
12763;BME280;6445;52.490;13.378;2022-11-25T06:19:20;118156.13;;;-146.10;100.00
12763;BME280;6445;52.490;13.378;2022-11-25T06:21:45;118156.13;;;-146.10;100.00
12763;BME280;6445;52.490;13.378;2022-11-25T06:24:10;118156.13;;;-146.10;100.00
12763;BME280;6445;52.490;13.378;2022-11-25T06:26:35;118156.13;;;-146.10;100.00
12763;BME280;6445;52.490;13.378;2022-11-25T06:29:01;118416.44;;;-146.10;100.00
12763;BME280;6445;52.490;13.378;2022-11-25T06:31:26;118416.44;;;-146.10;100.00
12763;BME280;6445;52.490;13.378;2022-11-25T06:33:52;118416.44;;;-146.10;100.00
12763;BME280;6445;52.490;13.378;2022-11-25T06:36:19;118416.44;;;-146.10;100.00
12763;BME280;6445;52.490;13.378;2022-11-25T06:38:46;118418.47;;;-146.10;100.00
12763;BME280;6445;52.490;13.378;2022-11-25T06:41:12;118418.47;;;-146.10;100.00
12763;BME280;6445;52.490;13.378;2022-11-25T06:43:38;118418.47;;;-146.10;100.00
12763;BME280;6445;52.490;13.378;2022-11-25T06:46:05;118418.47;;;-146.10;100.00
12763;BME280;6445;52.490;13.378;2022-11-25T06:48:31;118418.47;;;-146.10;100.00
12763;BME280;6445;52.490;13.378;2022-11-25T06:50:58;118418.47;;;-146.10;100.00
12763;BME280;6445;52.490;13.378;2022-11-25T06:53:25;118418.47;;;-146.10;100.00
12763;BME280;6445;52.490;13.378;2022-11-25T06:58:28;118418.47;;;-146.10;100.00
12763;BME280;6445;52.490;13.378;2022-11-25T07:01:03;118418.47;;;-146.10;100.00
12763;BME280;6445;52.490;13.378;2022-11-25T07:03:29;118418.47;;;-146.10;100.00
12763;BME280;6445;52.490;13.378;2022-11-25T07:05:58;118418.47;;;-146.10;100.00
12763;BME280;6445;52.490;13.378;2022-11-25T07:08:25;118418.47;;;-146.10;100.00
12763;BME280;6445;52.490;13.378;2022-11-25T07:10:51;118418.47;;;-146.10;100.00
12763;BME280;6445;52.490;13.378;2022-11-25T07:13:17;118418.47;;;-146.10;100.00
12763;BME280;6445;52.490;13.378;2022-11-25T07:15:42;118418.47;;;-146.10;100.00
12763;BME280;6445;52.490;13.378;2022-11-25T07:18:07;118418.47;;;-146.10;100.00
12763;BME280;6445;52.490;13.378;2022-11-25T07:20:32;118418.47;;;-146.10;100.00
12763;BME280;6445;52.490;13.378;2022-11-25T07:22:58;118418.47;;;-146.10;100.00
12763;BME280;6445;52.490;13.378;2022-11-25T07:25:23;118418.47;;;-146.10;100.00
12763;BME280;6445;52.490;13.378;2022-11-25T07:27:48;118418.47;;;-146.10;100.00
12763;BME280;6445;52.490;13.378;2022-11-25T07:30:14;118418.47;;;-146.10;100.00
12763;BME280;6445;52.490;13.378;2022-11-25T07:32:39;118418.47;;;-146.10;100.00
12763;BME280;6445;52.490;13.378;2022-11-25T07:35:04;118418.47;;;-146.10;100.00
12763;BME280;6445;52.490;13.378;2022-11-25T07:37:30;118418.47;;;-146.10;100.00
12763;BME280;6445;52.490;13.378;2022-11-25T07:39:55;118418.47;;;-146.10;100.00
12763;BME280;6445;52.490;13.378;2022-11-25T07:42:20;118418.47;;;-146.10;100.00
12763;BME280;6445;52.490;13.378;2022-11-25T07:44:47;118418.47;;;-146.10;100.00
12763;BME280;6445;52.490;13.378;2022-11-25T07:47:13;118418.47;;;-146.10;100.00
12763;BME280;6445;52.490;13.378;2022-11-25T07:49:38;118418.47;;;-146.10;100.00
12763;BME280;6445;52.490;13.378;2022-11-25T07:52:03;118418.47;;;-146.10;100.00
12763;BME280;6445;52.490;13.378;2022-11-25T07:54:29;118418.47;;;-146.10;100.00
12763;BME280;6445;52.490;13.378;2022-11-25T07:56:55;118418.47;;;-146.10;100.00
12763;BME280;6445;52.490;13.378;2022-11-25T07:59:21;118418.47;;;-146.10;100.00
12763;BME280;6445;52.490;13.378;2022-11-25T08:01:48;118418.47;;;-146.10;100.00
12763;BME280;6445;52.490;13.378;2022-11-25T08:04:13;118418.47;;;-146.10;100.00
12763;BME280;6445;52.490;13.378;2022-11-25T08:06:43;118418.47;;;-146.10;100.00
12763;BME280;6445;52.490;13.378;2022-11-25T08:09:12;118418.47;;;-146.10;100.00
12763;BME280;6445;52.490;13.378;2022-11-25T08:11:40;118416.44;;;-146.10;100.00
12763;BME280;6445;52.490;13.378;2022-11-25T08:14:06;118416.44;;;-146.10;100.00
12763;BME280;6445;52.490;13.378;2022-11-25T08:16:31;118156.13;;;-146.10;100.00
12763;BME280;6445;52.490;13.378;2022-11-25T08:19:02;117635.53;;;-146.10;100.00
12763;BME280;6445;52.490;13.378;2022-11-25T08:21:28;117375.28;;;-146.10;100.00
12763;BME280;6445;52.490;13.378;2022-11-25T08:23:54;117115.03;;;-146.10;100.00
12763;BME280;6445;52.490;13.378;2022-11-25T08:26:23;116594.56;;;-146.10;100.00
12763;BME280;6445;52.490;13.378;2022-11-25T08:28:49;116074.19;;;-146.10;100.00
12763;BME280;6445;52.490;13.378;2022-11-25T08:31:18;115814.03;;;-146.10;100.00
12763;BME280;6445;52.490;13.378;2022-11-25T08:33:44;113993.31;;;-146.10;100.00
12763;BME280;6445;52.490;13.378;2022-11-25T08:36:10;93242.81;;;-146.10;91.87
12763;BME280;6445;52.490;13.378;2022-11-25T08:38:36;77749.53;;;-146.10;89.03
12763;BME280;6445;52.490;13.378;2022-11-25T08:41:02;69559.09;;;-146.10;87.91
12763;BME280;6445;52.490;13.378;2022-11-25T08:43:28;73223.81;;;-146.10;88.72
12763;BME280;6445;52.490;13.378;2022-11-25T08:45:53;78265.03;;;-146.10;90.16
12763;BME280;6445;52.490;13.378;2022-11-25T08:48:19;81359.31;;;-146.10;90.43
12763;BME280;6445;52.490;13.378;2022-11-25T08:50:52;77749.53;;;-146.10;89.56
12763;BME280;6445;52.490;13.378;2022-11-25T08:53:18;78265.03;;;-146.10;89.98
12763;BME280;6445;52.490;13.378;2022-11-25T08:55:44;83681.59;;;-146.10;91.12
12763;BME280;6445;52.490;13.378;2022-11-25T08:58:09;93501.53;;;-146.10;94.09
12763;BME280;6445;52.490;13.378;2022-11-25T09:00:38;99975.09;;;-146.10;95.43
12763;BME280;6445;52.490;13.378;2022-11-25T09:03:03;101530.28;;;-146.10;95.98
12763;BME280;6445;52.490;13.378;2022-11-25T09:05:28;101789.53;;;-146.10;96.07
12763;BME280;6445;52.490;13.378;2022-11-25T09:08:00;101789.53;;;-146.10;95.54
12763;BME280;6445;52.490;13.378;2022-11-25T09:10:25;100493.44;;;-146.10;95.45
12763;BME280;6445;52.490;13.378;2022-11-25T09:12:50;100493.44;;;-146.10;95.26
12763;BME280;6445;52.490;13.378;2022-11-25T09:15:16;99456.84;;;-146.10;95.01
12763;BME280;6445;52.490;13.378;2022-11-25T09:17:41;99456.84;;;-146.10;95.02
12763;BME280;6445;52.490;13.378;2022-11-25T09:20:06;101011.81;;;-146.10;95.47
12763;BME280;6445;52.490;13.378;2022-11-25T09:22:32;101789.53;;;-146.10;95.63
12763;BME280;6445;52.490;13.378;2022-11-25T09:24:57;105161.41;;;-146.10;97.05
12763;BME280;6445;52.490;13.378;2022-11-25T09:27:22;105161.41;;;-146.10;96.62
12763;BME280;6445;52.490;13.378;2022-11-25T09:29:47;106459.00;;;-146.10;97.20
12763;BME280;6445;52.490;13.378;2022-11-25T09:32:13;106459.00;;;-146.10;97.40
12763;BME280;6445;52.490;13.378;2022-11-25T09:34:38;105420.88;;;-146.10;96.81
12763;BME280;6445;52.490;13.378;2022-11-25T09:37:03;103345.44;;;-146.10;95.47
12763;BME280;6445;52.490;13.378;2022-11-25T09:39:28;101789.53;;;-146.10;94.77
12763;BME280;6445;52.490;13.378;2022-11-25T09:42:17;88588.56;;;-146.10;90.40
12763;BME280;6445;52.490;13.378;2022-11-25T09:45:29;79038.38;;;-146.10;88.18
12763;BME280;6445;52.490;13.378;2022-11-25T09:48:49;63188.50;;;-146.10;84.93
12763;BME280;6445;52.490;13.378;2022-11-25T09:51:22;65233.28;;;-146.10;86.16
12763;BME280;6445;52.490;13.378;2022-11-25T09:53:54;62859.50;;;-146.10;85.65
12763;BME280;6445;52.490;13.378;2022-11-25T09:56:31;63104.25;;;-146.10;84.98
12763;BME280;6445;52.490;13.378;2022-11-25T09:59:04;59220.31;;;-146.10;83.48
12763;BME280;6445;52.490;13.378;2022-11-25T10:01:33;55862.81;;;-146.10;81.61
12763;BME280;6445;52.490;13.378;2022-11-25T10:04:09;54473.34;;;-146.10;78.97
12763;BME280;6445;52.490;13.378;2022-11-25T10:06:55;53494.63;;;-146.10;78.56
12763;BME280;6445;52.490;13.378;2022-11-25T10:09:25;55198.06;;;-146.10;82.46
12763;BME280;6445;52.490;13.378;2022-11-25T10:11:57;56175.19;;;-146.10;82.76
12763;BME280;6445;52.490;13.378;2022-11-25T10:14:39;57473.09;;;-146.10;84.26
12763;BME280;6445;52.490;13.378;2022-11-25T10:17:30;65566.50;;;-146.10;87.39
12763;BME280;6445;52.490;13.378;2022-11-25T10:20:12;68566.59;;;-146.10;87.04
12763;BME280;6445;52.490;13.378;2022-11-25T10:22:44;66640.56;;;-146.10;86.51
12763;BME280;6445;52.490;13.378;2022-11-25T10:25:22;70250.34;;;-146.10;87.81
12763;BME280;6445;52.490;13.378;2022-11-25T10:27:54;80843.44;;;-146.10;89.47
12763;BME280;6445;52.490;13.378;2022-11-25T10:30:23;75430.69;;;-146.10;87.77
12763;BME280;6445;52.490;13.378;2022-11-25T10:35:42;60781.84;;;-146.10;85.08
12763;BME280;6445;52.490;13.378;2022-11-25T10:38:19;59318.53;;;-146.10;83.80
12763;BME280;6445;52.490;13.378;2022-11-25T10:40:49;55540.44;;;-146.10;81.35
12763;BME280;6445;52.490;13.378;2022-11-25T10:43:15;54499.38;;;-146.10;80.75
12763;BME280;6445;52.490;13.378;2022-11-25T10:45:47;56960.28;;;-146.10;84.10
12763;BME280;6445;52.490;13.378;2022-11-25T10:48:34;63170.44;;;-146.10;86.29
12763;BME280;6445;52.490;13.378;2022-11-25T10:51:31;69735.91;;;-146.10;87.59
12763;BME280;6445;52.490;13.378;2022-11-25T10:54:18;80069.72;;;-146.10;89.52
12763;BME280;6445;52.490;13.378;2022-11-25T10:56:51;78007.28;;;-146.10;88.37
12763;BME280;6445;52.490;13.378;2022-11-25T10:59:37;72407.34;;;-146.10;87.34
12763;BME280;6445;52.490;13.378;2022-11-25T11:02:13;74615.81;;;-146.10;87.90
12763;BME280;6445;52.490;13.378;2022-11-25T11:07:42;52818.25;;;-146.10;72.71
12763;BME280;6445;52.490;13.378;2022-11-25T11:12:59;52582.16;;;-146.10;73.53
12763;BME280;6445;52.490;13.378;2022-11-25T11:17:55;52482.13;;;-146.10;70.81
12763;BME280;6445;52.490;13.378;2022-11-25T11:20:30;52284.03;;;-146.10;65.17
12763;BME280;6445;52.490;13.378;2022-11-25T11:23:00;52236.03;;;-146.10;65.68
12763;BME280;6445;52.490;13.378;2022-11-25T11:25:29;52248.03;;;-146.10;66.80
12763;BME280;6445;52.490;13.378;2022-11-25T11:27:55;52202.03;;;-146.10;66.25
12763;BME280;6445;52.490;13.378;2022-11-25T11:30:23;52210.03;;;-146.10;67.84
12763;BME280;6445;52.490;13.378;2022-11-25T11:33:08;52208.03;;;-146.10;63.40
12763;BME280;6445;52.490;13.378;2022-11-25T11:36:06;52180.00;;;-146.10;60.15
12763;BME280;6445;52.490;13.378;2022-11-25T11:38:47;52184.03;;;-146.10;57.35
12763;BME280;6445;52.490;13.378;2022-11-25T11:41:29;52150.00;;;-146.10;58.25
12763;BME280;6445;52.490;13.378;2022-11-25T11:44:20;52134.00;;;-146.10;60.83
12763;BME280;6445;52.490;13.378;2022-11-25T11:49:38;52144.00;;;-146.10;65.71
12763;BME280;6445;52.490;13.378;2022-11-25T11:52:26;52172.00;;;-146.10;66.08
12763;BME280;6445;52.490;13.378;2022-11-25T11:55:31;52188.03;;;-146.10;69.28
12763;BME280;6445;52.490;13.378;2022-11-25T11:58:18;52228.03;;;-146.10;70.77
12763;BME280;6445;52.490;13.378;2022-11-25T12:00:55;52274.03;;;-146.10;72.47
12763;BME280;6445;52.490;13.378;2022-11-25T12:03:24;52298.06;;;-146.10;71.45
12763;BME280;6445;52.490;13.378;2022-11-25T12:05:51;52328.06;;;-146.10;72.10
12763;BME280;6445;52.490;13.378;2022-11-25T12:08:49;52364.06;;;-146.10;73.44
12763;BME280;6445;52.490;13.378;2022-11-25T12:11:24;52478.13;;;-146.10;74.79
12763;BME280;6445;52.490;13.378;2022-11-25T12:13:59;52536.13;;;-146.10;76.17
12763;BME280;6445;52.490;13.378;2022-11-25T12:16:32;52834.25;;;-146.10;77.62
12763;BME280;6445;52.490;13.378;2022-11-25T12:21:51;53362.53;;;-146.10;79.20
12763;BME280;6445;52.490;13.378;2022-11-25T12:24:30;53492.63;;;-146.10;79.55
12763;BME280;6445;52.490;13.378;2022-11-25T12:27:04;54223.13;;;-146.10;81.43
12763;BME280;6445;52.490;13.378;2022-11-25T12:29:39;54151.09;;;-146.10;80.90
12763;BME280;6445;52.490;13.378;2022-11-25T12:37:38;54713.56;;;-146.10;82.14
12763;BME280;6445;52.490;13.378;2022-11-25T12:40:14;55302.16;;;-146.10;83.00
12763;BME280;6445;52.490;13.378;2022-11-25T12:42:41;59001.88;;;-146.10;85.51
12763;BME280;6445;52.490;13.378;2022-11-25T12:45:17;63084.19;;;-146.10;86.55
12763;BME280;6445;52.490;13.378;2022-11-25T12:47:44;68299.41;;;-146.10;87.57
12763;BME280;6445;52.490;13.378;2022-11-25T12:50:16;75688.28;;;-146.10;88.93
12763;BME280;6445;52.490;13.378;2022-11-25T12:52:53;79554.03;;;-146.10;89.38
12763;BME280;6445;52.490;13.378;2022-11-25T12:55:24;81617.28;;;-146.10;89.47
12763;BME280;6445;52.490;13.378;2022-11-25T12:58:20;81359.31;;;-146.10;89.56
12763;BME280;6445;52.490;13.378;2022-11-25T13:17:13;84972.31;;;-146.10;89.97
12763;BME280;6445;52.490;13.378;2022-11-25T13:19:39;86005.19;;;-146.10;90.48
12763;BME280;6445;52.490;13.378;2022-11-25T13:22:23;89105.44;;;-146.10;91.06
12763;BME280;6445;52.490;13.378;2022-11-25T13:24:51;90139.41;;;-146.10;91.15
12763;BME280;6445;52.490;13.378;2022-11-25T13:43:51;99197.72;;;-146.10;94.11